Joao Paulo II Airport Ponta Delgada PT
ICAO: LPPD
IATA: PDL
Category: Large
Scheduled Services: Yes

Elevation: 259 ft
TransAlt. 6000 ft.

Airport Communications:
APP:119.4
TWR:118.3

LPPD Zoom In..

Runways:

(A) RW 12 length 7621 ft width 148 ft
---- / hdg 121

(B) RW 30 length 7621 ft width 148 ft
ILS 109.50 / hdg 301

Location; LPPD
Day. 20 / Time. 11.00 Zulu
* QNH: 1020
* Temperature: 19° c. 66.2°f.
* Wind from: 270° Speed 09 kn.
Dewpoint: 18° c.
Visibility: 10 km or more.
Clouds: Few 600 ft.
Clouds: Scattered 1400 ft.
Clouds: Broken 3000 ft.

LPPD 201100Z 27009KT 9999 FEW006 SCT014 BKN030 19/18 Q1020


Wind From 270°
Speed 09 kn.

 
 
jpsmedia.com for Web Design SOUNDCLOUD worldairports.se 2018   terms of use